Time;durP1;ratioP1;P1;durP2;ratioP2;P2;SDS_P1;SDS_P2;PMS_P1;PMS_P2;Temp;Humidity;BMP_temperature;BMP_pressure;BME280_temperature;BME280_humidity;BME280_pressure;Samples;Min_cycle;Max_cycle;Signal;HPM_P1;HPM_P2
2023/05/02 00:00:03;;;;;;;22.80;20.33;;;13.10;99.90;;;;;;2093342;28;20035;-71
2023/05/02 00:01:04;;;;;;;20.48;18.48;;;13.10;99.90;;;;;;2091935;28;20033;-71
2023/05/02 00:02:05;;;;;;;20.65;18.45;;;13.10;99.90;;;;;;2092980;28;20059;-71
2023/05/02 00:03:07;;;;;;;20.23;18.20;;;13.10;99.90;;;;;;2093280;28;20044;-72
2023/05/02 00:04:07;;;;;;;18.90;17.02;;;13.00;99.90;;;;;;2092765;28;20024;-71
2023/05/02 00:05:08;;;;;;;22.65;20.35;;;13.10;99.90;;;;;;2094285;28;20085;-71
2023/05/02 00:06:08;;;;;;;19.50;17.50;;;13.00;99.90;;;;;;2093089;28;20096;-71
2023/05/02 00:07:10;;;;;;;17.00;15.30;;;13.00;99.90;;;;;;2092746;28;20124;-71
2023/05/02 00:08:11;;;;;;;20.65;17.10;;;13.00;99.90;;;;;;2093522;28;20115;-72
2023/05/02 00:09:12;;;;;;;16.77;15.07;;;13.00;99.90;;;;;;2091574;28;20185;-71
2023/05/02 00:10:13;;;;;;;21.88;19.58;;;13.00;99.90;;;;;;2094494;28;20017;-71
2023/05/02 00:11:13;;;;;;;17.23;15.27;;;13.00;99.90;;;;;;2094814;28;20036;-71
2023/05/02 00:12:14;;;;;;;15.90;14.00;;;12.90;99.90;;;;;;2092351;28;20661;-71
2023/05/02 00:13:14;;;;;;;18.30;16.50;;;12.90;99.90;;;;;;2093357;28;20051;-71
2023/05/02 00:14:15;;;;;;;22.40;20.23;;;12.90;99.90;;;;;;2091826;28;20028;-71
2023/05/02 00:15:15;;;;;;;20.40;17.60;;;12.90;99.90;;;;;;2094077;28;20032;-71
2023/05/02 00:16:17;;;;;;;18.45;16.75;;;12.90;99.90;;;;;;2091380;28;20060;-71
2023/05/02 00:17:18;;;;;;;21.38;19.38;;;12.90;99.90;;;;;;2093799;28;20078;-71
2023/05/02 00:18:19;;;;;;;14.50;12.95;;;12.80;99.90;;;;;;2093218;28;20495;-71
2023/05/02 00:19:19;;;;;;;16.45;14.85;;;12.80;99.90;;;;;;2093643;28;20442;-71
2023/05/02 00:20:20;;;;;;;18.55;16.85;;;12.80;99.90;;;;;;2093087;28;20028;-71
2023/05/02 00:21:20;;;;;;;22.58;20.35;;;12.80;99.90;;;;;;2095356;28;20035;-71
2023/05/02 00:22:21;;;;;;;23.23;20.92;;;12.80;99.90;;;;;;2091381;28;20021;-71
2023/05/02 00:23:22;;;;;;;20.48;18.40;;;12.70;99.90;;;;;;2094249;28;20025;-71
2023/05/02 00:24:23;;;;;;;22.42;20.10;;;12.70;99.90;;;;;;2091707;28;20056;-71
2023/05/02 00:25:24;;;;;;;21.23;19.05;;;12.70;99.90;;;;;;2093045;28;20033;-71
2023/05/02 00:26:25;;;;;;;23.40;21.10;;;12.70;99.90;;;;;;2093222;28;20142;-71
2023/05/02 00:27:26;;;;;;;20.92;18.83;;;12.70;99.90;;;;;;2091905;28;20029;-71
2023/05/02 00:28:27;;;;;;;19.13;17.33;;;12.70;99.90;;;;;;2091089;28;20040;-71
2023/05/02 00:29:27;;;;;;;21.77;19.63;;;12.70;99.90;;;;;;2092278;28;20013;-72
2023/05/02 00:30:28;;;;;;;24.63;22.20;;;12.70;99.90;;;;;;2096086;28;20029;-72
2023/05/02 00:31:28;;;;;;;18.02;16.33;;;12.70;99.90;;;;;;2094377;28;20031;-72
2023/05/02 00:32:29;;;;;;;21.73;19.52;;;12.60;99.90;;;;;;2093162;28;20112;-71
2023/05/02 00:33:30;;;;;;;23.75;21.23;;;12.60;99.90;;;;;;2092481;28;20139;-71
2023/05/02 00:34:31;;;;;;;24.10;21.75;;;12.60;99.90;;;;;;2091348;28;20024;-72
2023/05/02 00:35:32;;;;;;;19.60;17.60;;;12.60;99.90;;;;;;2093393;28;20475;-72
2023/05/02 00:36:32;;;;;;;22.05;19.95;;;12.60;99.90;;;;;;2091934;28;20438;-72
2023/05/02 00:37:33;;;;;;;27.85;23.42;;;12.60;99.90;;;;;;2094579;28;20020;-72
2023/05/02 00:38:34;;;;;;;26.30;23.60;;;12.60;99.90;;;;;;2093501;28;20099;-71
2023/05/02 00:39:34;;;;;;;24.77;22.23;;;12.50;99.90;;;;;;2090816;28;20024;-71
2023/05/02 00:40:43;;;;;;;28.63;25.50;;;12.50;99.90;;;;;;2093282;28;20060;-71
2023/05/02 00:41:44;;;;;;;31.17;27.60;;;12.50;99.90;;;;;;2092375;28;20493;-71
2023/05/02 00:42:44;;;;;;;33.67;30.10;;;12.50;99.90;;;;;;2089745;28;20028;-71
2023/05/02 00:43:45;;;;;;;35.70;31.85;;;12.50;99.90;;;;;;2092408;28;20060;-71
2023/05/02 00:44:46;;;;;;;34.00;29.30;;;12.40;99.90;;;;;;2093423;28;20025;-71
2023/05/02 00:45:47;;;;;;;36.42;31.80;;;12.40;99.90;;;;;;2092107;28;20539;-71
2023/05/02 00:46:47;;;;;;;39.47;32.92;;;12.40;99.90;;;;;;2092908;28;20029;-71
2023/05/02 00:47:49;;;;;;;39.53;34.03;;;12.40;99.90;;;;;;2092613;28;20029;-71
2023/05/02 00:48:49;;;;;;;37.80;33.70;;;12.30;99.90;;;;;;2092081;28;20047;-71
2023/05/02 00:49:50;;;;;;;41.75;36.20;;;12.40;99.90;;;;;;2091362;28;20032;-71
2023/05/02 00:50:51;;;;;;;41.55;34.83;;;12.30;99.90;;;;;;2093465;28;20051;-71
2023/05/02 00:51:53;;;;;;;43.55;36.50;;;12.40;99.90;;;;;;2093051;28;20033;-71
2023/05/02 00:52:54;;;;;;;41.88;35.70;;;12.30;99.90;;;;;;2092560;28;20572;-71
2023/05/02 00:53:56;;;;;;;38.45;34.15;;;12.40;99.90;;;;;;2092056;28;20033;-71
2023/05/02 00:54:57;;;;;;;42.97;34.35;;;12.30;99.90;;;;;;2092809;28;20519;-72
2023/05/02 00:55:58;;;;;;;44.15;36.40;;;12.30;99.90;;;;;;2091106;28;20815;-72
2023/05/02 00:56:58;;;;;;;41.55;36.05;;;12.30;99.90;;;;;;2092880;28;20079;-71
2023/05/02 00:58:01;;;;;;;42.63;35.17;;;12.30;99.90;;;;;;2090841;28;20025;-71
2023/05/02 00:59:02;;;;;;;44.63;37.17;;;12.30;99.90;;;;;;2095432;28;20055;-71
2023/05/02 01:00:03;;;;;;;43.47;36.35;;;12.30;99.90;;;;;;2092222;28;20158;-71
2023/05/02 01:01:20;;;;;;;42.90;37.03;;;12.30;99.90;;;;;;2095590;28;20128;-71
2023/05/02 01:02:47;;;;;;;43.45;36.75;;;12.30;99.90;;;;;;2092769;28;20781;-72
2023/05/02 01:03:58;;;;;;;42.83;36.55;;;12.40;99.90;;;;;;2090347;28;20024;-72
2023/05/02 01:05:37;;;;;;;44.75;38.33;;;12.30;99.90;;;;;;2092426;28;20025;-72
2023/05/02 01:06:40;;;;;;;44.05;36.38;;;12.30;99.90;;;;;;2089969;28;20551;-72
2023/05/02 01:08:07;;;;;;;35.33;30.23;;;12.30;99.90;;;;;;2092564;28;20032;-72
2023/05/02 01:09:16;;;;;;;40.65;34.05;;;12.30;99.90;;;;;;2093896;28;20566;-72
2023/05/02 01:10:36;;;;;;;38.63;33.83;;;12.30;99.90;;;;;;2092766;28;20039;-72
2023/05/02 01:11:55;;;;;;;41.78;35.65;;;12.30;99.90;;;;;;2092252;28;20024;-72
2023/05/02 01:13:04;;;;;;;34.10;30.02;;;12.30;99.90;;;;;;2093474;28;20141;-72
2023/05/02 01:14:09;;;;;;;29.73;26.52;;;12.30;99.90;;;;;;2092021;28;20512;-72
2023/05/02 01:15:16;;;;;;;33.15;28.90;;;12.30;99.90;;;;;;2092220;28;20140;-71
2023/05/02 01:16:19;;;;;;;35.63;30.63;;;12.30;99.90;;;;;;2093070;28;20024;-71
2023/05/02 01:17:24;;;;;;;30.90;27.33;;;12.30;99.90;;;;;;2092144;28;20017;-72
2023/05/02 01:18:29;;;;;;;35.65;31.85;;;12.40;99.90;;;;;;2092651;28;20119;-72
2023/05/02 01:19:37;;;;;;;38.17;33.65;;;12.40;99.90;;;;;;2092339;28;20048;-71
2023/05/02 01:20:40;;;;;;;38.33;31.45;;;12.40;99.90;;;;;;2090460;28;20400;-72
2023/05/02 01:21:41;;;;;;;35.42;29.17;;;12.40;99.90;;;;;;2091837;28;20028;-71
2023/05/02 01:22:42;;;;;;;32.70;28.23;;;12.40;99.90;;;;;;2093441;28;20029;-71
2023/05/02 01:23:58;;;;;;;35.53;29.80;;;12.40;99.90;;;;;;2092551;28;20024;-71
2023/05/02 01:25:18;;;;;;;37.50;32.30;;;12.40;99.90;;;;;;2092063;28;20063;-71
2023/05/02 01:26:44;;;;;;;36.90;31.95;;;12.40;99.90;;;;;;2093063;28;20400;-71
2023/05/02 01:27:59;;;;;;;40.00;34.63;;;12.40;99.90;;;;;;2092266;28;20032;-72
2023/05/02 01:29:03;;;;;;;38.70;33.92;;;12.40;99.90;;;;;;2090564;28;20027;-72
2023/05/02 01:30:07;;;;;;;39.75;32.38;;;12.40;99.90;;;;;;2090014;28;20440;-72
2023/05/02 01:31:07;;;;;;;39.35;34.33;;;12.40;99.90;;;;;;2092409;28;20083;-72
2023/05/02 01:32:11;;;;;;;38.83;33.63;;;12.40;99.90;;;;;;2093653;28;20020;-72
2023/05/02 01:33:16;;;;;;;42.80;34.17;;;12.40;99.90;;;;;;2093991;28;20031;-71
2023/05/02 01:34:20;;;;;;;39.75;34.13;;;12.50;99.90;;;;;;2093554;28;20118;-71
2023/05/02 01:35:21;;;;;;;41.40;35.83;;;12.50;99.90;;;;;;2093501;28;20091;-71
2023/05/02 01:36:25;;;;;;;37.92;33.22;;;12.50;99.90;;;;;;2092052;28;20029;-71
2023/05/02 01:37:28;;;;;;;41.20;34.38;;;12.50;99.90;;;;;;2094081;28;20095;-71
2023/05/02 01:38:29;;;;;;;42.05;36.33;;;12.50;99.90;;;;;;2090514;28;20111;-71
2023/05/02 01:39:31;;;;;;;44.25;35.95;;;12.50;99.90;;;;;;2092230;28;20024;-72
2023/05/02 01:40:33;;;;;;;43.40;36.65;;;12.50;99.90;;;;;;2088368;28;20022;-71
2023/05/02 01:41:35;;;;;;;42.95;38.35;;;12.50;99.90;;;;;;2089747;28;20833;-71
2023/05/02 01:42:37;;;;;;;45.83;39.65;;;12.50;99.90;;;;;;2091978;28;20029;-72
2023/05/02 01:43:39;;;;;;;45.08;39.30;;;12.50;99.90;;;;;;2090554;28;20476;-72
2023/05/02 01:44:42;;;;;;;42.38;37.65;;;12.50;99.90;;;;;;2091239;28;20055;-72
2023/05/02 01:45:45;;;;;;;48.13;40.58;;;12.50;99.90;;;;;;2090282;28;20788;-72
2023/05/02 01:46:47;;;;;;;45.63;39.20;;;12.50;99.90;;;;;;2093005;28;20032;-71
2023/05/02 01:47:48;;;;;;;44.05;38.72;;;12.50;99.90;;;;;;2091156;28;20078;-71
2023/05/02 01:48:51;;;;;;;45.40;39.58;;;12.50;99.90;;;;;;2092621;28;20044;-71
2023/05/02 01:49:52;;;;;;;44.35;38.45;;;12.50;99.90;;;;;;2092227;28;20068;-71
2023/05/02 01:50:55;;;;;;;48.53;39.95;;;12.50;99.90;;;;;;2093093;28;20032;-71
2023/05/02 01:51:56;;;;;;;44.85;39.47;;;12.50;99.90;;;;;;2093055;28;20031;-71
2023/05/02 01:52:57;;;;;;;49.17;38.10;;;12.50;99.90;;;;;;2093855;28;20031;-71
2023/05/02 01:54:00;;;;;;;46.88;39.92;;;12.50;99.90;;;;;;2094671;28;20020;-71
2023/05/02 01:55:03;;;;;;;49.95;41.05;;;12.50;99.90;;;;;;2091303;28;20032;-71
2023/05/02 01:56:05;;;;;;;47.22;39.85;;;12.50;99.90;;;;;;2092098;28;20062;-72
2023/05/02 01:57:07;;;;;;;45.63;38.53;;;12.50;99.90;;;;;;2091425;28;20496;-71
2023/05/02 01:58:10;;;;;;;46.13;38.88;;;12.50;99.90;;;;;;2092108;28;20388;-71
2023/05/02 01:59:13;;;;;;;49.83;39.63;;;12.50;99.90;;;;;;2092047;28;20051;-71
2023/05/02 02:00:17;;;;;;;43.63;38.80;;;12.50;99.90;;;;;;2093661;28;20043;-71
2023/05/02 02:01:19;;;;;;;46.75;39.92;;;12.50;99.90;;;;;;2093604;28;20020;-71
2023/05/02 02:02:21;;;;;;;43.72;37.20;;;12.50;99.90;;;;;;2091964;28;20036;-71
2023/05/02 02:03:23;;;;;;;48.75;39.67;;;12.50;99.90;;;;;;2091415;28;20487;-71
2023/05/02 02:04:25;;;;;;;45.55;38.25;;;12.50;99.90;;;;;;2093949;28;20028;-71
2023/05/02 02:05:27;;;;;;;47.65;39.38;;;12.50;99.90;;;;;;2091656;28;20033;-71
2023/05/02 02:06:27;;;;;;;47.20;38.90;;;12.50;99.90;;;;;;2094018;28;20027;-71
2023/05/02 02:07:28;;;;;;;44.58;37.95;;;12.60;99.90;;;;;;2092705;28;20043;-72
2023/05/02 02:08:29;;;;;;;46.47;37.80;;;12.60;99.90;;;;;;2091228;28;20025;-71
2023/05/02 02:09:30;;;;;;;44.28;37.53;;;12.60;99.90;;;;;;2091955;28;20127;-72
2023/05/02 02:10:35;;;;;;;46.08;38.33;;;12.50;99.90;;;;;;2090925;28;20025;-71
2023/05/02 02:11:46;;;;;;;47.03;37.13;;;12.60;99.90;;;;;;2095166;28;20029;-71
2023/05/02 02:12:59;;;;;;;46.95;36.92;;;12.60;99.90;;;;;;2092282;28;20105;-71
2023/05/02 02:14:05;;;;;;;42.78;36.15;;;12.60;99.90;;;;;;2091394;28;20131;-71
2023/05/02 02:15:08;;;;;;;48.40;38.35;;;12.60;99.90;;;;;;2091893;28;20040;-71
2023/05/02 02:16:13;;;;;;;46.65;36.28;;;12.60;99.90;;;;;;2089628;28;20017;-71
2023/05/02 02:17:24;;;;;;;46.25;36.92;;;12.50;99.90;;;;;;2090888;28;20055;-71
2023/05/02 02:18:28;;;;;;;48.50;37.25;;;12.60;99.90;;;;;;2093750;28;20024;-71
2023/05/02 02:19:30;;;;;;;39.25;33.97;;;12.60;99.90;;;;;;2092703;28;20024;-71
2023/05/02 02:20:31;;;;;;;44.38;37.53;;;12.60;99.90;;;;;;2091853;28;20035;-71
2023/05/02 02:21:34;;;;;;;46.38;36.55;;;12.60;99.90;;;;;;2092079;28;20024;-71
2023/05/02 02:22:38;;;;;;;46.92;37.80;;;12.60;99.90;;;;;;2093084;28;20037;-71
2023/05/02 02:23:42;;;;;;;44.08;35.90;;;12.60;99.90;;;;;;2092879;28;20058;-71
2023/05/02 02:24:43;;;;;;;44.97;35.88;;;12.60;99.90;;;;;;2091309;28;20025;-71
2023/05/02 02:25:45;;;;;;;43.60;35.22;;;12.60;99.90;;;;;;2092373;28;20075;-71
2023/05/02 02:26:45;;;;;;;47.67;35.30;;;12.60;99.90;;;;;;2091757;28;20033;-71
2023/05/02 02:27:47;;;;;;;42.10;34.67;;;12.60;99.90;;;;;;2091177;28;20033;-71
2023/05/02 02:28:48;;;;;;;42.60;34.63;;;12.60;99.90;;;;;;2094768;28;20024;-71
2023/05/02 02:29:48;;;;;;;42.28;33.78;;;12.70;99.90;;;;;;2089062;28;20045;-71
2023/05/02 02:30:49;;;;;;;41.10;32.70;;;12.70;99.90;;;;;;2092618;28;20113;-71
2023/05/02 02:31:50;;;;;;;36.72;32.17;;;12.70;99.90;;;;;;2090268;28;20033;-71
2023/05/02 02:32:51;;;;;;;37.38;32.10;;;12.60;99.90;;;;;;2087802;28;20564;-71
2023/05/02 02:33:51;;;;;;;41.78;32.88;;;12.60;99.90;;;;;;2092852;28;20031;-71
2023/05/02 02:34:52;;;;;;;38.90;30.05;;;12.60;99.90;;;;;;2090718;28;20040;-71
2023/05/02 02:36:03;;;;;;;40.53;30.48;;;12.60;99.90;;;;;;2092124;28;20043;-71
2023/05/02 02:37:13;;;;;;;36.90;30.80;;;12.60;99.90;;;;;;2091861;28;20025;-71
2023/05/02 02:38:32;;;;;;;39.83;31.33;;;12.50;99.90;;;;;;2090846;28;20514;-71
2023/05/02 02:39:54;;;;;;;39.15;30.15;;;12.60;99.90;;;;;;2091886;28;20021;-71
2023/05/02 02:41:11;;;;;;;39.92;30.77;;;12.60;99.90;;;;;;2091807;28;20829;-71
2023/05/02 02:42:11;;;;;;;35.08;28.65;;;12.60;99.90;;;;;;2090686;28;20102;-71
2023/05/02 02:43:31;;;;;;;37.65;29.92;;;12.60;99.90;;;;;;2092567;28;20025;-72
2023/05/02 02:44:54;;;;;;;34.88;27.25;;;12.50;99.90;;;;;;2090855;28;20119;-72
2023/05/02 02:46:25;;;;;;;33.13;25.55;;;12.50;99.90;;;;;;2089937;28;20083;-72
2023/05/02 02:47:43;;;;;;;34.70;24.95;;;12.50;99.90;;;;;;2092282;28;20460;-72
2023/05/02 02:48:58;;;;;;;30.70;24.40;;;12.50;99.90;;;;;;2091731;28;20556;-71
2023/05/02 02:50:05;;;;;;;32.22;24.83;;;12.50;99.90;;;;;;2089295;28;20024;-71
2023/05/02 02:51:20;;;;;;;33.35;23.58;;;12.50;99.90;;;;;;2091238;28;20109;-71
2023/05/02 02:52:36;;;;;;;33.17;24.05;;;12.50;99.90;;;;;;2091779;28;20605;-71
2023/05/02 02:54:03;;;;;;;28.98;22.52;;;12.50;99.90;;;;;;2089736;28;20494;-71
2023/05/02 02:55:16;;;;;;;29.45;22.50;;;12.50;99.90;;;;;;2090498;28;20024;-71
2023/05/02 02:56:25;;;;;;;29.23;21.88;;;12.40;99.90;;;;;;2093073;28;20029;-72
2023/05/02 02:57:43;;;;;;;28.73;23.17;;;12.40;99.90;;;;;;2092676;28;20029;-71
2023/05/02 02:58:57;;;;;;;30.30;22.65;;;12.40;99.90;;;;;;2091140;28;20061;-71
2023/05/02 03:00:27;;;;;;;28.42;22.02;;;12.50;99.90;;;;;;2090153;28;20139;-71
2023/05/02 03:01:30;;;;;;;;;;;12.40;99.90;;;;;;2088369;28;20048;-71
2023/05/02 03:02:32;;;;;;;22.98;20.48;;;12.40;99.90;;;;;;2091223;28;19913;-71
2023/05/02 03:03:33;;;;;;;29.08;20.77;;;12.40;99.90;;;;;;2090050;28;20472;-71
2023/05/02 03:04:43;;;;;;;29.17;21.35;;;12.40;99.90;;;;;;2093402;28;20035;-71
2023/05/02 03:05:44;;;;;;;27.42;20.30;;;12.40;99.90;;;;;;2093023;28;20099;-71
2023/05/02 03:06:45;;;;;;;26.08;20.45;;;12.40;99.90;;;;;;2093445;28;20033;-71
2023/05/02 03:07:46;;;;;;;27.77;20.60;;;12.50;99.90;;;;;;2092955;28;20495;-71
2023/05/02 03:08:46;;;;;;;28.60;19.80;;;12.40;99.90;;;;;;2094424;28;20052;-72
2023/05/02 03:09:47;;;;;;;27.85;19.70;;;12.50;99.90;;;;;;2094051;28;20067;-72
2023/05/02 03:10:48;;;;;;;25.77;19.27;;;12.50;99.90;;;;;;2093562;28;20120;-71
2023/05/02 03:11:48;;;;;;;23.42;19.58;;;12.50;99.90;;;;;;2092970;28;20641;-71
2023/05/02 03:12:49;;;;;;;22.67;18.65;;;12.50;99.90;;;;;;2092033;28;20136;-71
2023/05/02 03:13:51;;;;;;;27.50;19.30;;;12.50;99.90;;;;;;2094158;28;20071;-71
2023/05/02 03:14:54;;;;;;;24.73;19.50;;;12.50;99.90;;;;;;2091591;28;20157;-71
2023/05/02 03:16:38;;;;;;;25.08;19.13;;;12.50;99.90;;;;;;2095201;28;20500;-71
2023/05/02 03:17:39;;;;;;;22.35;17.30;;;12.50;99.90;;;;;;2092865;28;20430;-71
2023/05/02 03:18:40;;;;;;;25.75;19.23;;;12.50;99.90;;;;;;2093778;28;20021;-71
2023/05/02 03:19:40;;;;;;;26.52;18.55;;;12.50;99.90;;;;;;2092243;28;20080;-71
2023/05/02 03:20:41;;;;;;;23.85;17.33;;;12.50;99.90;;;;;;2091766;28;20103;-71
2023/05/02 03:21:42;;;;;;;22.63;17.80;;;12.50;99.90;;;;;;2096453;28;20116;-71
2023/05/02 03:22:42;;;;;;;22.95;18.52;;;12.50;99.90;;;;;;2096489;28;20032;-71
2023/05/02 03:23:43;;;;;;;24.50;18.55;;;12.60;99.90;;;;;;2094173;28;20090;-71
2023/05/02 03:24:43;;;;;;;25.15;18.75;;;12.60;99.90;;;;;;2092847;28;20028;-71
2023/05/02 03:25:44;;;;;;;26.73;19.92;;;12.60;99.90;;;;;;2092869;28;20043;-71
2023/05/02 03:26:46;;;;;;;23.60;19.95;;;12.60;99.90;;;;;;2091948;28;20511;-71
2023/05/02 03:27:47;;;;;;;24.67;19.02;;;12.60;99.90;;;;;;2093816;28;20021;-72
2023/05/02 03:28:49;;;;;;;24.63;19.48;;;12.60;99.90;;;;;;2091528;28;20029;-72
2023/05/02 03:29:49;;;;;;;27.15;20.45;;;12.60;99.90;;;;;;2091456;28;20032;-72
2023/05/02 03:30:50;;;;;;;25.38;19.50;;;12.60;99.90;;;;;;2093611;28;20555;-71
2023/05/02 03:31:51;;;;;;;26.77;19.08;;;12.70;99.90;;;;;;2094417;28;20032;-72
2023/05/02 03:32:51;;;;;;;27.40;19.35;;;12.60;99.90;;;;;;2094587;28;20039;-72
2023/05/02 03:33:52;;;;;;;24.35;19.17;;;12.60;99.90;;;;;;2093706;28;20428;-72
2023/05/02 03:34:57;;;;;;;24.17;19.77;;;12.60;99.90;;;;;;2093211;28;20063;-72
2023/05/02 03:35:57;;;;;;;23.92;19.27;;;12.70;99.90;;;;;;2092215;28;20017;-72
2023/05/02 03:36:58;;;;;;;23.27;19.00;;;12.70;99.90;;;;;;2091834;28;20028;-71
2023/05/02 03:37:58;;;;;;;27.50;19.75;;;12.70;99.90;;;;;;2092476;28;21497;-71
2023/05/02 03:38:59;;;;;;;23.30;17.67;;;12.70;99.90;;;;;;2095239;28;20059;-71
2023/05/02 03:40:00;;;;;;;25.05;18.65;;;12.70;99.90;;;;;;2091721;28;20020;-71
2023/05/02 03:41:01;;;;;;;23.23;16.98;;;12.70;99.90;;;;;;2093908;28;20081;-71
2023/05/02 03:42:02;;;;;;;22.45;18.13;;;12.70;99.90;;;;;;2093021;28;20426;-72
2023/05/02 03:43:03;;;;;;;24.45;18.23;;;12.70;99.90;;;;;;2095088;28;20035;-72
2023/05/02 03:44:03;;;;;;;20.13;16.70;;;12.70;99.90;;;;;;2096591;28;20029;-72
2023/05/02 03:45:07;;;;;;;22.35;17.05;;;12.70;99.90;;;;;;2084795;28;20035;-71
2023/05/02 03:46:10;;;;;;;23.23;16.77;;;12.70;99.90;;;;;;2093043;28;20372;-71
2023/05/02 03:47:12;;;;;;;22.40;15.73;;;12.70;99.90;;;;;;2095974;28;20032;-71
2023/05/02 03:48:12;;;;;;;21.58;16.08;;;12.70;99.90;;;;;;2093192;28;20016;-71
2023/05/02 03:49:13;;;;;;;20.88;15.25;;;12.70;99.90;;;;;;2097019;28;20078;-71
2023/05/02 03:50:14;;;;;;;24.17;15.95;;;12.70;99.90;;;;;;2095027;28;20099;-71
2023/05/02 03:51:14;;;;;;;27.13;17.83;;;12.70;99.90;;;;;;2093711;28;20066;-72
2023/05/02 03:52:15;;;;;;;19.90;15.80;;;12.70;99.90;;;;;;2094670;28;20036;-72
2023/05/02 03:53:15;;;;;;;22.38;16.08;;;12.70;99.90;;;;;;2094061;28;20122;-72
2023/05/02 03:54:16;;;;;;;19.15;15.05;;;12.70;99.90;;;;;;2092364;28;20020;-72
2023/05/02 03:55:17;;;;;;;17.83;15.75;;;12.80;99.90;;;;;;2091564;28;20055;-71
2023/05/02 03:56:18;;;;;;;19.15;15.15;;;12.80;99.90;;;;;;2092963;28;20097;-71
2023/05/02 03:57:20;;;;;;;19.38;15.85;;;12.80;99.90;;;;;;2092065;28;20024;-71
2023/05/02 03:58:21;;;;;;;18.33;14.35;;;12.80;99.90;;;;;;2094848;28;20051;-71
2023/05/02 03:59:21;;;;;;;20.05;14.60;;;12.80;99.90;;;;;;2095373;28;20025;-72
2023/05/02 04:00:22;;;;;;;20.27;15.30;;;12.80;99.90;;;;;;2094414;28;20566;-72
2023/05/02 04:01:22;;;;;;;23.65;15.77;;;12.80;99.90;;;;;;2094387;28;20544;-71
2023/05/02 04:02:24;;;;;;;19.35;14.35;;;12.80;99.90;;;;;;2092351;28;20033;-72
2023/05/02 04:03:25;;;;;;;19.58;14.70;;;12.80;99.90;;;;;;2091111;28;20025;-72
2023/05/02 04:04:25;;;;;;;20.33;15.00;;;12.80;99.90;;;;;;2092876;28;20085;-71
2023/05/02 04:05:26;;;;;;;16.73;13.85;;;12.80;99.90;;;;;;2091664;28;20118;-71
2023/05/02 04:06:26;;;;;;;17.67;14.88;;;12.80;99.90;;;;;;2093497;28;20532;-71
2023/05/02 04:07:27;;;;;;;18.42;14.63;;;12.90;99.90;;;;;;2091836;28;20117;-71
2023/05/02 04:08:27;;;;;;;19.38;14.63;;;12.80;99.90;;;;;;2094058;28;20053;-71
2023/05/02 04:09:28;;;;;;;17.90;14.13;;;12.80;99.90;;;;;;2093263;28;20033;-71
2023/05/02 04:10:28;;;;;;;18.92;14.40;;;12.80;99.90;;;;;;2091777;28;20055;-71
2023/05/02 04:11:29;;;;;;;20.98;15.63;;;12.90;99.90;;;;;;2092392;28;20035;-71
2023/05/02 04:12:30;;;;;;;18.33;15.20;;;12.80;99.90;;;;;;2092018;28;20033;-71
2023/05/02 04:13:30;;;;;;;21.08;14.90;;;12.80;99.90;;;;;;2091476;28;20113;-71
2023/05/02 04:14:31;;;;;;;20.67;14.75;;;12.80;99.90;;;;;;2089510;28;20025;-71
2023/05/02 04:15:32;;;;;;;20.88;15.10;;;12.80;99.90;;;;;;2092553;28;20392;-71
2023/05/02 04:16:33;;;;;;;23.20;15.07;;;12.90;99.90;;;;;;2091966;28;20495;-71
2023/05/02 04:17:33;;;;;;;21.98;14.98;;;12.80;99.90;;;;;;2092198;28;20434;-71
2023/05/02 04:18:34;;;;;;;20.42;14.57;;;12.80;99.90;;;;;;2092325;28;20379;-71
2023/05/02 04:19:35;;;;;;;19.00;14.75;;;12.80;99.90;;;;;;2090595;28;20070;-71
2023/05/02 04:20:35;;;;;;;19.50;14.40;;;12.80;99.90;;;;;;2092672;28;20404;-71
2023/05/02 04:21:36;;;;;;;18.83;15.07;;;12.80;99.90;;;;;;2093607;28;20503;-71
2023/05/02 04:22:40;;;;;;;16.98;14.40;;;12.80;99.90;;;;;;2093769;28;20044;-71
2023/05/02 04:23:41;;;;;;;19.70;14.73;;;12.80;99.90;;;;;;2092995;28;20079;-71
2023/05/02 04:24:42;;;;;;;20.60;15.13;;;12.80;99.90;;;;;;2092344;28;20066;-71
2023/05/02 04:25:53;;;;;;;21.33;15.00;;;12.80;99.90;;;;;;2091686;28;20044;-71
2023/05/02 04:26:54;;;;;;;19.33;14.50;;;12.80;99.90;;;;;;2093233;28;20084;-71
2023/05/02 04:27:55;;;;;;;17.83;14.15;;;12.80;99.90;;;;;;2092687;28;20036;-71
2023/05/02 04:28:56;;;;;;;17.92;14.20;;;12.80;99.90;;;;;;2091889;28;20405;-72
2023/05/02 04:29:56;;;;;;;19.90;15.40;;;12.80;99.90;;;;;;2089501;28;20075;-71
2023/05/02 04:30:57;;;;;;;20.63;14.50;;;12.80;99.90;;;;;;2090514;28;20033;-71
2023/05/02 04:31:57;;;;;;;21.88;14.90;;;12.80;99.90;;;;;;2094095;28;20071;-71
2023/05/02 04:32:58;;;;;;;24.52;15.65;;;12.80;99.90;;;;;;2093663;28;20047;-71
2023/05/02 04:33:58;;;;;;;21.10;14.57;;;12.80;99.90;;;;;;2090632;28;20056;-71
2023/05/02 04:34:59;;;;;;;22.10;15.52;;;12.80;99.90;;;;;;2090307;28;20028;-71
2023/05/02 04:36:00;;;;;;;20.02;15.25;;;12.80;99.90;;;;;;2092609;28;20531;-71
2023/05/02 04:37:01;;;;;;;18.08;14.20;;;12.80;99.90;;;;;;2094026;28;20451;-71
2023/05/02 04:38:01;;;;;;;18.90;14.25;;;12.80;99.90;;;;;;2090584;28;20040;-71
2023/05/02 04:39:03;;;;;;;20.20;15.93;;;12.80;99.90;;;;;;2093453;28;20134;-71
2023/05/02 04:40:05;;;;;;;19.83;15.90;;;12.80;99.90;;;;;;2092430;28;20021;-71
2023/05/02 04:41:06;;;;;;;23.38;15.30;;;12.80;99.90;;;;;;2093233;28;20119;-71
2023/05/02 04:42:06;;;;;;;22.05;16.42;;;12.80;99.90;;;;;;2098344;28;20036;-71
2023/05/02 04:43:07;;;;;;;22.83;15.85;;;12.80;99.90;;;;;;2085434;28;20465;-71
2023/05/02 04:44:07;;;;;;;24.52;16.30;;;12.80;99.90;;;;;;2089553;28;20380;-72
2023/05/02 04:45:08;;;;;;;21.98;15.45;;;12.80;99.90;;;;;;2093933;28;20032;-72
2023/05/02 04:46:09;;;;;;;25.40;17.02;;;12.80;99.90;;;;;;2090121;28;20024;-71
2023/05/02 04:47:09;;;;;;;23.63;15.77;;;12.80;99.90;;;;;;2096438;28;20025;-71
2023/05/02 04:48:10;;;;;;;24.02;16.73;;;12.80;99.90;;;;;;2094754;28;20028;-71
2023/05/02 04:49:11;;;;;;;21.60;17.13;;;12.80;99.90;;;;;;2093167;28;20032;-71
2023/05/02 04:50:11;;;;;;;21.35;16.23;;;12.80;99.90;;;;;;2091829;28;20016;-71
2023/05/02 04:51:12;;;;;;;26.45;17.83;;;12.80;99.90;;;;;;2094651;28;20048;-72
2023/05/02 04:52:13;;;;;;;26.55;17.45;;;12.80;99.90;;;;;;2094066;28;20028;-71
2023/05/02 04:53:14;;;;;;;22.73;17.42;;;12.80;99.90;;;;;;2091819;28;20031;-71
2023/05/02 04:54:14;;;;;;;20.35;16.88;;;12.80;99.90;;;;;;2096283;28;20031;-71
2023/05/02 04:55:15;;;;;;;22.23;16.38;;;12.80;99.90;;;;;;2094811;28;20375;-71
2023/05/02 04:56:15;;;;;;;22.10;16.25;;;12.80;99.90;;;;;;2095354;28;20385;-71
2023/05/02 04:57:16;;;;;;;22.75;16.30;;;12.80;99.90;;;;;;2089920;28;20033;-71
2023/05/02 04:58:16;;;;;;;20.80;16.30;;;12.80;99.90;;;;;;2090962;28;20017;-71
2023/05/02 04:59:17;;;;;;;21.50;16.30;;;12.90;99.90;;;;;;2095186;28;20020;-71
2023/05/02 05:00:17;;;;;;;21.95;16.80;;;12.90;99.90;;;;;;2094118;28;20029;-71
2023/05/02 05:01:18;;;;;;;23.80;17.08;;;12.90;99.90;;;;;;2095665;28;20059;-71
2023/05/02 05:02:18;;;;;;;22.60;17.45;;;12.90;99.90;;;;;;2094611;28;20123;-71
2023/05/02 05:03:19;;;;;;;24.23;16.60;;;12.90;99.90;;;;;;2094139;28;20048;-71
2023/05/02 05:04:20;;;;;;;27.35;18.08;;;12.90;99.90;;;;;;2096420;28;20108;-71
2023/05/02 05:05:20;;;;;;;21.27;16.08;;;12.90;99.90;;;;;;2092498;28;20039;-71
2023/05/02 05:06:21;;;;;;;27.48;19.35;;;12.90;99.90;;;;;;2098482;28;20025;-71
2023/05/02 05:07:22;;;;;;;22.13;16.63;;;12.90;99.90;;;;;;2093377;28;20040;-71
2023/05/02 05:08:22;;;;;;;24.30;16.40;;;12.80;99.90;;;;;;2092506;28;20030;-71
2023/05/02 05:09:23;;;;;;;22.13;16.67;;;12.80;99.90;;;;;;2093229;28;20467;-71
2023/05/02 05:10:24;;;;;;;20.92;16.30;;;12.80;99.90;;;;;;2089685;28;20033;-71
2023/05/02 05:11:25;;;;;;;25.40;18.55;;;12.80;99.90;;;;;;2092766;28;20063;-71
2023/05/02 05:12:25;;;;;;;25.48;18.60;;;12.80;99.90;;;;;;2094790;28;20063;-71
2023/05/02 05:13:27;;;;;;;20.88;17.65;;;12.80;99.90;;;;;;2093840;28;20025;-71
2023/05/02 05:14:27;;;;;;;20.90;16.75;;;12.80;99.90;;;;;;2092280;28;20025;-71
2023/05/02 05:15:28;;;;;;;21.15;16.52;;;12.80;99.90;;;;;;2091498;28;20044;-71
2023/05/02 05:16:29;;;;;;;21.85;16.75;;;12.80;99.90;;;;;;2095353;28;20464;-71
2023/05/02 05:17:29;;;;;;;18.33;15.90;;;12.80;99.90;;;;;;2092731;28;20093;-71
2023/05/02 05:18:30;;;;;;;17.40;12.93;;;12.70;99.90;;;;;;2094546;28;20050;-71
2023/05/02 05:19:31;;;;;;;14.77;11.02;;;12.70;99.90;;;;;;2092974;28;20027;-71
2023/05/02 05:20:32;;;;;;;13.85;9.82;;;12.70;99.90;;;;;;2090350;28;20021;-71
2023/05/02 05:21:33;;;;;;;10.68;8.75;;;12.60;99.90;;;;;;2093088;28;20039;-71